Latest Weather Observations for Coles Point

IDS60801

Issued at 12:01 pm CDT Sunday 14 February 2016 (issued every 30 minutes, with the page automatically refreshed every 10 minutes)

About weather observations | Map of weather stations | Latest weather observations for SA | Other Formats
Station Details ID: 018191 Name: COLES POINT Lat: -34.37 Lon: 135.37 Height: 28.0 m
Data from the previous 72 hours. | See also: Recent months at Coles Point
Date/Time
CDT
Temp
°C
App
Temp
°C
Dew
Point
Rel
Hum
%
Delta-T
°C
Wind Press
QNH
hPa
Press
MSL
hPa
Rain
since 9 am
mm
Dir
 
Spd
km/h
Gust
km/h
Spd
kts
Gust
kts
14/12:00pm 21.4 18.5 12.3 56 5.1 SSW 19 24 10 13 1018.1 1018.0 0.0
14/11:30am 21.1 18.7 12.8 59 4.7 SW 17 22 9 12 1018.0 1017.9 0.0
14/11:00am 20.7 18.4 12.9 61 4.4 SW 17 22 9 12 1018.1 1018.0 0.0
14/10:30am 20.1 18.1 12.6 62 4.2 SW 15 20 8 11 1018.4 1018.2 0.0
14/10:00am 19.6 17.1 12.4 63 4.0 SW 17 20 9 11 1018.4 1018.2 0.0
14/09:30am 19.1 17.9 12.8 67 3.5 SW 11 15 6 8 1018.2 1018.1 0.0
14/09:00am 18.1 18.0 14.0 77 2.3 SW 7 9 4 5 1017.9 1017.8 0.0
14/08:30am 16.9 18.0 14.7 87 1.3 SW 2 6 1 3 1017.6 1017.5 0.0
14/08:00am 15.4 16.7 14.1 92 0.7 CALM 0 0 0 0 1017.2 1017.1 0.0
14/07:30am 14.2 15.1 12.9 92 0.7 CALM 0 0 0 0 1016.7 1016.6 0.0
14/07:00am 12.4 12.6 10.5 88 1.0 CALM 0 0 0 0 1016.4 1016.3 0.0
14/06:30am 13.0 13.4 11.2 89 0.9 CALM 0 0 0 0 1016.0 1015.9 0.0
14/06:00am 13.1 13.5 11.2 88 1.0 CALM 0 2 0 1 1015.7 1015.6 0.0
14/05:30am 13.6 13.6 11.3 86 1.2 SSW 2 6 1 3 1015.5 1015.4 0.0
14/05:00am 15.3 14.4 12.6 84 1.5 SSW 9 11 5 6 1015.1 1015.0 0.0
14/04:30am 15.4 14.9 12.7 84 1.5 S 7 9 4 5 1015.1 1015.0 0.0
14/04:00am 15.6 15.6 14.1 91 0.8 SSW 7 9 4 5 1015.0 1014.9 0.0
14/03:30am 14.9 15.9 13.3 90 0.9 CALM 0 0 0 0 1015.0 1014.9 0.0
14/03:00am 14.6 14.6 12.3 86 1.3 S 4 6 2 3 1015.0 1014.9 0.0
14/02:30am 15.5 15.0 12.8 84 1.5 S 7 9 4 5 1015.3 1015.2 0.0
14/02:00am 16.5 15.6 13.6 83 1.6 SSW 11 15 6 8 1015.5 1015.4 0.0
14/01:30am 16.4 16.4 14.2 87 1.3 SSW 7 9 4 5 1015.6 1015.5 0.0
14/01:00am 17.1 17.4 15.1 88 1.2 SSW 7 9 4 5 1015.9 1015.8 0.0
14/12:30am 16.7 16.9 14.7 88 1.1 SSW 7 9 4 5 1016.0 1015.9 0.0
14/12:00am 17.0 17.5 15.0 88 1.2 SW 6 9 3 5 1016.1 1016.0 0.0
 
Date/Time
CDT
Temp
°C
App
Temp
°C
Dew
Point
Rel
Hum
%
Delta-T
°C
Wind Press
QNH
hPa
Press
MSL
hPa
Rain
since 9 am
mm
Dir
 
Spd
km/h
Gust
km/h
Spd
kts
Gust
kts
13/11:30pm 16.2 17.3 14.6 90 0.9 SSW 2 4 1 2 1016.2 1016.1 0.0
13/11:00pm 16.2 17.5 14.0 87 1.2 CALM 0 2 0 1 1016.2 1016.1 0.0
13/10:30pm 16.5 16.6 13.8 84 1.5 SSW 6 7 3 4 1016.5 1016.4 0.0
13/10:00pm 16.7 16.6 13.4 81 1.9 SSW 6 6 3 3 1016.2 1016.1 0.0
13/09:30pm 17.4 17.2 13.7 79 2.1 S 7 9 4 5 1016.0 1015.9 0.0
13/09:00pm 18.5 17.8 14.2 76 2.5 S 11 15 6 8 1015.7 1015.6 0.0
13/08:30pm 18.6 18.4 14.7 78 2.3 SSW 9 13 5 7 1015.3 1015.2 0.0
13/08:00pm 19.5 18.5 14.7 74 2.8 SSW 13 17 7 9 1015.0 1014.9 0.0
13/07:30pm 20.4 18.7 14.7 70 3.3 SSW 17 22 9 12 1014.6 1014.5 0.0
13/07:00pm 20.4 18.2 14.3 68 3.5 S 19 24 10 13 1014.4 1014.3 0.0
13/06:30pm 21.1 18.6 14.0 64 4.1 SSW 20 28 11 15 1014.2 1014.1 0.0
13/06:00pm 21.2 18.9 14.6 66 3.9 SSW 20 30 11 16 1014.1 1014.0 0.0
13/05:30pm 21.2 18.6 13.9 63 4.2 S 20 28 11 15 1014.0 1013.9 0.0
13/05:00pm 21.1 18.7 14.5 66 3.9 S 20 30 11 16 1014.2 1014.1 0.0
13/04:30pm 22.0 20.0 15.4 66 3.9 S 20 32 11 17 1014.1 1014.0 0.0
13/04:00pm 21.3 18.5 16.3 73 3.0 SSW 26 33 14 18 1014.2 1014.1 0.0
13/03:30pm 21.8 18.3 16.5 72 3.2 SSW 30 35 16 19 1014.1 1014.0 0.0
13/03:00pm 21.4 18.8 16.8 75 2.8 SSW 26 35 14 19 1014.3 1014.2 0.0
13/02:30pm 22.5 20.4 16.3 68 3.8 SSW 22 28 12 15 1014.1 1014.0 0.0
13/02:00pm 23.2 21.7 16.7 67 4.0 SSW 20 26 11 14 1014.2 1014.1 0.0
13/01:30pm 22.9 22.6 17.4 71 3.4 SW 15 20 8 11 1014.1 1014.0 0.0
13/01:00pm 22.5 22.3 16.8 70 3.5 SW 13 20 7 11 1014.2 1014.1 0.0
13/12:30pm 21.8 22.6 17.4 76 2.7 SW 9 13 5 7 1014.3 1014.2 0.0
13/12:00pm 21.4 22.0 17.6 79 2.3 SW 11 15 6 8 1014.2 1014.1 0.0
13/11:30am 21.9 22.4 17.5 76 2.7 SW 11 15 6 8 1014.0 1013.9 0.0
13/11:00am 20.9 22.2 17.5 81 2.1 SW 7 13 4 7 1014.0 1013.9 0.0
13/10:30am 20.5 21.9 17.9 85 1.6 SW 7 11 4 6 1013.8 1013.7 0.0
13/10:00am 20.1 21.7 17.9 87 1.4 SW 6 7 3 4 1013.6 1013.5 0.0
13/09:30am 19.4 20.9 17.5 89 1.2 W 6 7 3 4 1013.6 1013.5 0.0
13/09:00am 18.9 20.6 17.2 90 1.0 WSW 4 7 2 4 1013.3 1013.2 0.0
13/08:30am 18.4 20.9 17.2 93 0.7 CALM 0 4 0 2 1013.0 1012.9 0.0
13/08:00am 16.7 18.5 15.6 93 0.6 CALM 0 0 0 0 1012.9 1012.8 0.0
13/07:30am 14.9 16.0 13.6 92 0.7 CALM 0 0 0 0 1012.7 1012.6 0.0
13/07:00am 14.7 15.6 12.9 89 1.0 CALM 0 0 0 0 1012.2 1012.1 0.0
13/06:30am 14.9 15.9 13.3 90 0.9 CALM 0 0 0 0 1012.1 1012.0 0.0
13/06:00am 15.0 16.1 13.4 90 0.9 CALM 0 0 0 0 1011.9 1011.8 0.0
13/05:30am 14.2 15.0 12.4 89 1.0 CALM 0 0 0 0 1011.7 1011.6 0.0
13/05:00am 13.5 13.9 11.2 86 1.2 CALM 0 4 0 2 1011.6 1011.5 0.0
13/04:30am 13.5 13.8 11.0 85 1.3 CALM 0 0 0 0 1011.7 1011.6 0.0
13/04:00am 13.3 13.3 11.0 86 1.2 NE 2 6 1 3 1011.7 1011.6 0.0
13/03:30am 14.7 15.4 12.2 85 1.4 CALM 0 0 0 0 1011.7 1011.6 0.0
13/03:00am 14.3 14.8 11.6 84 1.4 CALM 0 0 0 0 1012.0 1011.9 0.0
13/02:30am 15.3 16.2 12.8 85 1.4 CALM 0 0 0 0 1012.1 1012.0 0.0
13/02:00am 15.0 15.5 12.7 86 1.3 NE 2 4 1 2 1012.4 1012.3 0.0
13/01:30am 15.3 16.2 12.8 85 1.4 CALM 0 0 0 0 1012.7 1012.6 0.0
13/01:00am 15.7 15.4 13.4 86 1.3 SSE 7 13 4 7 1012.7 1012.6 0.0
13/12:30am 15.2 15.2 12.3 83 1.6 N 4 6 2 3 1012.3 1012.2 0.0
13/12:00am 15.5 15.9 12.4 82 1.7 WSW 2 2 1 1 1012.4 1012.3 0.0
 
Date/Time
CDT
Temp
°C
App
Temp
°C
Dew
Point
Rel
Hum
%
Delta-T
°C
Wind Press
QNH
hPa
Press
MSL
hPa
Rain
since 9 am
mm
Dir
 
Spd
km/h
Gust
km/h
Spd
kts
Gust
kts
12/11:30pm 15.8 16.5 13.5 86 1.3 WSW 2 4 1 2 1012.5 1012.4 0.0
12/11:00pm 17.3 18.8 14.6 84 1.6 CALM 0 0 0 0 1012.8 1012.7 0.0
12/10:30pm 16.6 17.2 14.2 86 1.4 WSW 4 4 2 2 1013.0 1012.9 0.0
12/10:00pm 16.6 17.2 14.2 86 1.4 WSW 4 6 2 3 1013.0 1012.9 0.0
12/09:30pm 17.3 18.0 14.4 83 1.7 WSW 4 6 2 3 1012.9 1012.8 0.0
12/09:00pm 17.9 18.0 13.8 77 2.3 WSW 6 7 3 4 1012.7 1012.6 0.0
12/08:30pm 19.5 20.1 14.3 72 3.0 WSW 4 6 2 3 1012.5 1012.4 0.0
12/08:00pm 20.4 20.7 14.5 69 3.4 WSW 6 7 3 4 1012.4 1012.3 0.0
12/07:30pm 20.9 20.5 14.1 65 4.0 WSW 9 15 5 8 1012.6 1012.5 0.0
12/07:00pm 21.3 20.2 14.2 64 4.1 WSW 13 17 7 9 1012.6 1012.5 0.0
12/06:30pm 24.2 24.2 13.7 52 6.2 WSW 6 9 3 5 1012.2 1012.1 0.0
12/06:00pm 23.4 23.4 14.1 56 5.5 WSW 7 11 4 6 1012.5 1012.4 0.0
12/05:30pm 23.3 23.0 14.3 57 5.3 SW 9 15 5 8 1012.7 1012.6 0.0
12/05:00pm 23.3 21.4 14.3 57 5.3 SW 17 19 9 10 1013.1 1013.0 0.0
12/04:30pm 24.6 23.1 14.1 52 6.2 SW 15 19 8 10 1013.1 1013.0 0.0
12/04:00pm 24.5 22.9 15.1 55 5.6 SW 17 26 9 14 1013.7 1013.6 0.0
12/03:30pm 23.8 21.2 15.0 57 5.3 SSW 22 28 12 15 1013.9 1013.8 0.0
12/03:00pm 23.4 20.5 15.2 60 4.9 SSW 24 32 13 17 1014.2 1014.1 0.0
12/02:30pm 23.1 21.4 15.7 63 4.5 SW 19 24 10 13 1014.4 1014.3 0.0
12/02:00pm 21.6 19.4 15.0 66 3.9 WSW 20 26 11 14 1014.3 1014.2 0.0
12/01:30pm 23.4 22.0 15.5 61 4.7 WSW 17 22 9 12 1014.1 1014.0 0.0
12/01:00pm 24.2 23.3 12.5 48 6.7 WSW 9 13 5 7 1013.7 1013.6 0.0
12/12:30pm 23.6 22.5 13.2 52 6.0 WSW 11 15 6 8 1014.2 1014.1 0.0
12/12:00pm 22.9 22.3 14.7 60 4.9 SW 11 15 6 8 1014.6 1014.5 0.0
12/11:30am 22.1 21.8 15.5 66 3.9 SW 11 13 6 7 1015.1 1015.0 0.0
12/11:00am 20.9 20.5 15.2 70 3.4 SW 11 13 6 7 1015.5 1015.4 0.0
12/10:30am 21.4 21.9 15.5 69 3.5 WSW 7 9 4 5 1015.7 1015.6 0.0
12/10:00am 19.4 19.4 15.3 77 2.4 SW 9 11 5 6 1016.0 1015.9 0.0
12/09:30am 19.0 19.7 15.7 81 2.0 SW 6 9 3 5 1016.4 1016.3 0.0
12/09:00am 18.8 20.0 15.9 83 1.7 SSE 4 4 2 2 1016.4 1016.3 0.2
12/08:30am 16.5 18.1 16.0 97 0.3 SSE 2 6 1 3 1016.6 1016.5 0.2
12/08:00am 14.9 16.5 14.9 100 0.0 CALM 0 0 0 0 1016.3 1016.2 0.2
12/07:30am 11.9 12.3 11.4 97 0.3 CALM 0 0 0 0 1016.1 1016.0 0.2
12/07:00am 10.0 9.8 8.9 93 0.5 CALM 0 0 0 0 1016.0 1015.9 0.2
12/06:30am 11.9 12.2 10.8 93 0.6 CALM 0 0 0 0 1015.6 1015.5 0.2
12/06:00am 15.1 15.8 14.6 97 0.3 S 4 4 2 2 1015.4 1015.3 0.2
12/05:30am 14.6 14.5 14.0 96 0.3 ENE 7 9 4 5 1015.0 1014.9 0.2
12/05:00am 14.0 13.7 13.2 95 0.4 ENE 7 9 4 5 1014.9 1014.8 0.0
12/04:30am 14.3 14.1 13.5 95 0.4 ENE 7 9 4 5 1014.9 1014.8 0.0
12/04:00am 14.0 13.8 13.1 94 0.5 E 6 7 3 4 1015.2 1015.1 0.0
12/03:30am 15.5 14.5 14.7 95 0.5 ESE 13 15 7 8 1015.2 1015.1 0.0
12/03:00am 15.2 15.2 14.1 93 0.6 SE 7 9 4 5 1015.9 1015.8 0.0
12/02:30am 15.2 15.7 14.1 93 0.6 SSE 4 7 2 4 1016.2 1016.1 0.0
12/02:00am 15.2 16.1 14.1 93 0.6 SE 2 4 1 2 1016.2 1016.1 0.0
12/01:30am 14.0 14.2 12.0 88 1.1 SE 2 4 1 2 1016.6 1016.5 0.0
12/01:00am 16.4 15.5 14.8 90 0.9 SE 13 17 7 9 1016.6 1016.5 0.0
12/12:30am 16.9 15.0 15.2 90 1.0 SE 19 24 10 13 1016.8 1016.7 0.0
12/12:00am 16.9 15.3 15.1 89 1.0 SSE 17 22 9 12 1017.1 1017.0 0.0
 
Date/Time
CDT
Temp
°C
App
Temp
°C
Dew
Point
Rel
Hum
%
Delta-T
°C
Wind Press
QNH
hPa
Press
MSL
hPa
Rain
since 9 am
mm
Dir
 
Spd
km/h
Gust
km/h
Spd
kts
Gust
kts
11/11:30pm 16.9 15.3 14.9 88 1.2 SSE 17 22 9 12 1017.4 1017.3 0.0
11/11:00pm 17.3 15.6 14.8 85 1.4 SSE 17 20 9 11 1017.4 1017.3 0.0
11/10:30pm 17.5 16.2 14.8 84 1.6 SSE 15 22 8 12 1017.7 1017.6 0.0
11/10:00pm 17.7 16.3 14.6 82 1.8 SSE 15 20 8 11 1017.7 1017.6 0.0
11/09:30pm 18.3 16.5 14.4 78 2.2 SSE 17 22 9 12 1017.4 1017.3 0.0
11/09:00pm 19.0 16.8 14.3 74 2.7 SSE 19 24 10 13 1017.3 1017.2 0.0
11/08:30pm 19.8 17.3 14.2 70 3.2 SSE 20 28 11 15 1016.6 1016.5 0.0
11/08:00pm 21.1 17.9 14.3 65 4.0 SSE 24 32 13 17 1016.4 1016.3 0.0
11/07:30pm 20.6 17.4 15.2 71 3.2 S 26 35 14 19 1015.9 1015.8 0.0
11/07:00pm 21.3 16.8 14.9 67 3.8 S 32 39 17 21 1015.5 1015.4 0.0
11/06:30pm 22.4 18.3 14.8 62 4.5 S 30 39 16 21 1015.2 1015.1 0.0
11/06:00pm 22.6 17.5 14.7 61 4.7 S 35 44 19 24 1015.1 1015.0 0.0
11/05:30pm 23.9 19.1 14.6 56 5.5 S 33 39 18 21 1014.8 1014.7 0.0
11/05:00pm 24.2 19.5 14.9 56 5.6 S 33 43 18 23 1014.5 1014.4 0.0
11/04:30pm 24.6 19.7 15.2 55 5.6 S 35 43 19 23 1014.6 1014.5 0.0
11/04:00pm 24.7 20.1 15.1 55 5.8 S 33 41 18 22 1014.7 1014.6 0.0
11/03:30pm 24.5 21.2 15.1 55 5.6 SW 26 35 14 19 1015.0 1014.9 0.0
11/03:00pm 24.5 21.0 14.6 54 5.9 SSW 26 32 14 17 1015.3 1015.2 0.0
11/02:30pm 23.8 20.6 15.3 59 5.1 SSW 26 35 14 19 1015.8 1015.7 0.0
11/02:00pm 24.3 21.1 15.2 57 5.5 SW 26 32 14 17 1016.0 1015.9 0.0
11/01:30pm 24.6 20.8 14.7 54 5.9 SSW 28 33 15 18 1016.3 1016.2 0.0
11/01:00pm 23.3 21.1 14.3 57 5.3 SW 19 26 10 14 1016.5 1016.4 0.0
11/12:30pm 22.1 19.8 14.0 60 4.7 SW 19 26 10 14 1016.8 1016.7 0.0

Other Formats:

Comma delimited format used in spreadsheet applications
http://www.bom.gov.au/fwo/IDS60801/IDS60801.94658.axf

JavaScript Object Notation format (JSON) in row-major order
http://www.bom.gov.au/fwo/IDS60801/IDS60801.94658.json